Terminal Aerodrome Forecast
Issued by NWS Tulsa, OK

Home | Current Version | Previous Version | Text Only | Print | Product List | Glossary On
Versions: 1 2 3 4 5 6 7 8 9 10 11 12 13 14 15 16 17 18
000
FTUS44 KTSA 051120
TAFFSM
TAF
KFSM 051120Z 0512/0612 06004KT P6SM SCT040
     FM051800 16007KT P6SM VCTS SCT050CB BKN150
     FM060200 09004KT P6SM SCT060 BKN200=

USA.gov is the U.S. government's official web portal to all federal, state and local government web resources and services.